sensor_id;sensor_type;location;lat;lon;timestamp;P1;durP1;ratioP1;P2;durP2;ratioP2
72388;SDS011;60566;48.062;9.930;2024-03-06T00:00:01;10.57;;;6.07;;
72388;SDS011;60566;48.062;9.930;2024-03-06T00:02:26;9.52;;;5.90;;
72388;SDS011;60566;48.062;9.930;2024-03-06T00:04:52;9.88;;;6.00;;
72388;SDS011;60566;48.062;9.930;2024-03-06T00:07:19;9.95;;;6.18;;
72388;SDS011;60566;48.062;9.930;2024-03-06T00:09:44;10.02;;;6.20;;
72388;SDS011;60566;48.062;9.930;2024-03-06T00:12:09;9.30;;;5.75;;
72388;SDS011;60566;48.062;9.930;2024-03-06T00:14:35;10.30;;;6.45;;
72388;SDS011;60566;48.062;9.930;2024-03-06T00:17:00;11.60;;;6.50;;
72388;SDS011;60566;48.062;9.930;2024-03-06T00:19:28;10.60;;;6.20;;
72388;SDS011;60566;48.062;9.930;2024-03-06T00:21:53;8.77;;;5.60;;
72388;SDS011;60566;48.062;9.930;2024-03-06T00:24:20;9.55;;;5.18;;
72388;SDS011;60566;48.062;9.930;2024-03-06T00:26:45;8.98;;;4.90;;
72388;SDS011;60566;48.062;9.930;2024-03-06T00:29:11;8.15;;;4.60;;
72388;SDS011;60566;48.062;9.930;2024-03-06T00:31:36;8.18;;;3.78;;
72388;SDS011;60566;48.062;9.930;2024-03-06T00:34:03;10.18;;;4.90;;
72388;SDS011;60566;48.062;9.930;2024-03-06T00:36:28;9.25;;;4.60;;
72388;SDS011;60566;48.062;9.930;2024-03-06T00:38:53;10.93;;;5.43;;
72388;SDS011;60566;48.062;9.930;2024-03-06T00:41:20;12.30;;;6.03;;
72388;SDS011;60566;48.062;9.930;2024-03-06T00:43:46;11.18;;;6.43;;
72388;SDS011;60566;48.062;9.930;2024-03-06T00:46:11;11.90;;;6.43;;
72388;SDS011;60566;48.062;9.930;2024-03-06T00:48:36;13.35;;;7.00;;
72388;SDS011;60566;48.062;9.930;2024-03-06T00:51:02;10.70;;;6.55;;
72388;SDS011;60566;48.062;9.930;2024-03-06T00:53:27;10.75;;;6.85;;
72388;SDS011;60566;48.062;9.930;2024-03-06T00:55:53;11.43;;;6.85;;
72388;SDS011;60566;48.062;9.930;2024-03-06T00:58:19;11.27;;;6.47;;
72388;SDS011;60566;48.062;9.930;2024-03-06T01:00:45;11.35;;;6.55;;
72388;SDS011;60566;48.062;9.930;2024-03-06T01:03:10;11.27;;;6.35;;
72388;SDS011;60566;48.062;9.930;2024-03-06T01:05:36;11.80;;;5.63;;
72388;SDS011;60566;48.062;9.930;2024-03-06T01:08:03;10.25;;;5.70;;
72388;SDS011;60566;48.062;9.930;2024-03-06T01:10:29;9.07;;;5.88;;
72388;SDS011;60566;48.062;9.930;2024-03-06T01:12:54;10.00;;;5.38;;
72388;SDS011;60566;48.062;9.930;2024-03-06T01:15:21;8.98;;;5.65;;
72388;SDS011;60566;48.062;9.930;2024-03-06T01:17:46;11.40;;;6.40;;
72388;SDS011;60566;48.062;9.930;2024-03-06T01:20:12;11.75;;;6.38;;
72388;SDS011;60566;48.062;9.930;2024-03-06T01:22:37;9.27;;;5.50;;
72388;SDS011;60566;48.062;9.930;2024-03-06T01:25:03;9.63;;;5.80;;
72388;SDS011;60566;48.062;9.930;2024-03-06T01:27:29;12.18;;;6.25;;
72388;SDS011;60566;48.062;9.930;2024-03-06T01:29:54;10.25;;;6.20;;
72388;SDS011;60566;48.062;9.930;2024-03-06T01:32:21;10.52;;;5.90;;
72388;SDS011;60566;48.062;9.930;2024-03-06T01:34:46;14.13;;;6.50;;
72388;SDS011;60566;48.062;9.930;2024-03-06T01:37:12;9.88;;;5.57;;
72388;SDS011;60566;48.062;9.930;2024-03-06T01:39:37;9.15;;;5.80;;
72388;SDS011;60566;48.062;9.930;2024-03-06T01:42:03;9.65;;;6.07;;
72388;SDS011;60566;48.062;9.930;2024-03-06T01:44:31;12.18;;;5.97;;
72388;SDS011;60566;48.062;9.930;2024-03-06T01:46:56;10.38;;;5.80;;
72388;SDS011;60566;48.062;9.930;2024-03-06T01:49:23;9.75;;;5.18;;
72388;SDS011;60566;48.062;9.930;2024-03-06T01:51:50;9.43;;;5.68;;
72388;SDS011;60566;48.062;9.930;2024-03-06T01:54:17;11.88;;;5.97;;
72388;SDS011;60566;48.062;9.930;2024-03-06T01:56:44;11.43;;;5.75;;
72388;SDS011;60566;48.062;9.930;2024-03-06T01:59:10;10.65;;;6.07;;
72388;SDS011;60566;48.062;9.930;2024-03-06T02:01:36;10.35;;;6.05;;
72388;SDS011;60566;48.062;9.930;2024-03-06T02:04:01;12.77;;;6.28;;
72388;SDS011;60566;48.062;9.930;2024-03-06T02:06:29;11.38;;;6.75;;
72388;SDS011;60566;48.062;9.930;2024-03-06T02:08:54;12.02;;;6.22;;
72388;SDS011;60566;48.062;9.930;2024-03-06T02:11:20;10.82;;;7.20;;
72388;SDS011;60566;48.062;9.930;2024-03-06T02:13:45;10.65;;;6.85;;
72388;SDS011;60566;48.062;9.930;2024-03-06T02:16:11;13.57;;;7.45;;
72388;SDS011;60566;48.062;9.930;2024-03-06T02:18:36;11.23;;;6.97;;
72388;SDS011;60566;48.062;9.930;2024-03-06T02:21:03;10.75;;;6.97;;
72388;SDS011;60566;48.062;9.930;2024-03-06T02:23:29;12.25;;;6.80;;
72388;SDS011;60566;48.062;9.930;2024-03-06T02:25:54;11.57;;;6.55;;
72388;SDS011;60566;48.062;9.930;2024-03-06T02:28:20;12.50;;;7.28;;
72388;SDS011;60566;48.062;9.930;2024-03-06T02:30:49;13.50;;;7.00;;
72388;SDS011;60566;48.062;9.930;2024-03-06T02:33:15;14.23;;;7.35;;
72388;SDS011;60566;48.062;9.930;2024-03-06T02:35:40;11.40;;;7.00;;
72388;SDS011;60566;48.062;9.930;2024-03-06T02:38:07;11.52;;;7.15;;
72388;SDS011;60566;48.062;9.930;2024-03-06T02:40:32;11.73;;;6.50;;
72388;SDS011;60566;48.062;9.930;2024-03-06T02:42:58;12.13;;;6.75;;
72388;SDS011;60566;48.062;9.930;2024-03-06T02:45:23;10.45;;;6.00;;
72388;SDS011;60566;48.062;9.930;2024-03-06T02:47:49;9.32;;;4.88;;
72388;SDS011;60566;48.062;9.930;2024-03-06T02:50:14;12.18;;;6.15;;
72388;SDS011;60566;48.062;9.930;2024-03-06T02:52:40;10.43;;;5.07;;
72388;SDS011;60566;48.062;9.930;2024-03-06T02:55:07;10.18;;;5.38;;
72388;SDS011;60566;48.062;9.930;2024-03-06T02:57:33;8.93;;;4.70;;
72388;SDS011;60566;48.062;9.930;2024-03-06T02:59:58;9.18;;;5.20;;
72388;SDS011;60566;48.062;9.930;2024-03-06T03:02:24;9.75;;;5.03;;
72388;SDS011;60566;48.062;9.930;2024-03-06T03:04:49;9.80;;;4.75;;
72388;SDS011;60566;48.062;9.930;2024-03-06T03:07:15;8.38;;;4.80;;
72388;SDS011;60566;48.062;9.930;2024-03-06T03:09:40;10.38;;;5.55;;
72388;SDS011;60566;48.062;9.930;2024-03-06T03:12:09;9.25;;;5.03;;
72388;SDS011;60566;48.062;9.930;2024-03-06T03:14:35;10.20;;;5.55;;
72388;SDS011;60566;48.062;9.930;2024-03-06T03:17:00;11.25;;;5.18;;
72388;SDS011;60566;48.062;9.930;2024-03-06T03:19:26;10.13;;;5.00;;
72388;SDS011;60566;48.062;9.930;2024-03-06T03:21:51;8.43;;;4.70;;
72388;SDS011;60566;48.062;9.930;2024-03-06T03:24:16;10.30;;;5.03;;
72388;SDS011;60566;48.062;9.930;2024-03-06T03:26:42;11.23;;;5.40;;
72388;SDS011;60566;48.062;9.930;2024-03-06T03:29:09;8.75;;;4.47;;
72388;SDS011;60566;48.062;9.930;2024-03-06T03:31:34;10.57;;;5.28;;
72388;SDS011;60566;48.062;9.930;2024-03-06T03:33:59;8.52;;;5.15;;
72388;SDS011;60566;48.062;9.930;2024-03-06T03:36:25;7.88;;;4.65;;
72388;SDS011;60566;48.062;9.930;2024-03-06T03:38:50;7.30;;;4.30;;
72388;SDS011;60566;48.062;9.930;2024-03-06T03:41:15;8.98;;;4.78;;
72388;SDS011;60566;48.062;9.930;2024-03-06T03:43:41;8.75;;;4.28;;
72388;SDS011;60566;48.062;9.930;2024-03-06T03:46:08;9.48;;;5.30;;
72388;SDS011;60566;48.062;9.930;2024-03-06T03:48:34;11.45;;;5.22;;
72388;SDS011;60566;48.062;9.930;2024-03-06T03:50:59;11.77;;;5.32;;
72388;SDS011;60566;48.062;9.930;2024-03-06T03:53:25;10.18;;;4.88;;
72388;SDS011;60566;48.062;9.930;2024-03-06T03:55:50;11.65;;;4.47;;
72388;SDS011;60566;48.062;9.930;2024-03-06T03:58:15;8.85;;;4.90;;
72388;SDS011;60566;48.062;9.930;2024-03-06T04:00:41;7.00;;;4.35;;
72388;SDS011;60566;48.062;9.930;2024-03-06T04:03:07;10.68;;;4.68;;
72388;SDS011;60566;48.062;9.930;2024-03-06T04:05:33;7.63;;;4.03;;
72388;SDS011;60566;48.062;9.930;2024-03-06T04:07:58;10.70;;;4.90;;
72388;SDS011;60566;48.062;9.930;2024-03-06T04:10:24;9.40;;;5.18;;
72388;SDS011;60566;48.062;9.930;2024-03-06T04:12:49;10.82;;;5.05;;
72388;SDS011;60566;48.062;9.930;2024-03-06T04:15:15;9.05;;;5.28;;
72388;SDS011;60566;48.062;9.930;2024-03-06T04:17:40;9.30;;;4.50;;
72388;SDS011;60566;48.062;9.930;2024-03-06T04:20:07;9.93;;;5.20;;
72388;SDS011;60566;48.062;9.930;2024-03-06T04:22:33;10.85;;;5.50;;
72388;SDS011;60566;48.062;9.930;2024-03-06T04:24:59;12.20;;;5.00;;
72388;SDS011;60566;48.062;9.930;2024-03-06T04:27:25;10.43;;;4.85;;
72388;SDS011;60566;48.062;9.930;2024-03-06T04:29:51;11.02;;;5.57;;
72388;SDS011;60566;48.062;9.930;2024-03-06T04:32:16;10.32;;;5.80;;
72388;SDS011;60566;48.062;9.930;2024-03-06T04:34:41;9.77;;;5.63;;
72388;SDS011;60566;48.062;9.930;2024-03-06T04:37:08;10.48;;;5.35;;
72388;SDS011;60566;48.062;9.930;2024-03-06T04:39:33;10.15;;;5.47;;
72388;SDS011;60566;48.062;9.930;2024-03-06T04:41:59;9.85;;;5.07;;
72388;SDS011;60566;48.062;9.930;2024-03-06T04:44:24;11.43;;;5.43;;
72388;SDS011;60566;48.062;9.930;2024-03-06T04:46:50;12.15;;;6.88;;
72388;SDS011;60566;48.062;9.930;2024-03-06T04:49:15;11.55;;;5.88;;
72388;SDS011;60566;48.062;9.930;2024-03-06T04:51:41;10.02;;;5.97;;
72388;SDS011;60566;48.062;9.930;2024-03-06T04:54:08;13.25;;;5.95;;
72388;SDS011;60566;48.062;9.930;2024-03-06T04:56:33;13.35;;;7.25;;
72388;SDS011;60566;48.062;9.930;2024-03-06T04:58:59;11.32;;;6.47;;
72388;SDS011;60566;48.062;9.930;2024-03-06T05:01:24;13.07;;;7.00;;
72388;SDS011;60566;48.062;9.930;2024-03-06T05:03:51;11.77;;;7.13;;
72388;SDS011;60566;48.062;9.930;2024-03-06T05:06:16;10.80;;;6.60;;
72388;SDS011;60566;48.062;9.930;2024-03-06T05:08:42;11.02;;;6.07;;
72388;SDS011;60566;48.062;9.930;2024-03-06T05:11:09;13.27;;;6.25;;
72388;SDS011;60566;48.062;9.930;2024-03-06T05:13:34;10.60;;;6.57;;
72388;SDS011;60566;48.062;9.930;2024-03-06T05:16:01;11.98;;;5.82;;
72388;SDS011;60566;48.062;9.930;2024-03-06T05:18:27;11.80;;;6.10;;
72388;SDS011;60566;48.062;9.930;2024-03-06T05:20:52;11.48;;;5.95;;
72388;SDS011;60566;48.062;9.930;2024-03-06T05:23:17;10.13;;;5.63;;
72388;SDS011;60566;48.062;9.930;2024-03-06T05:25:43;11.55;;;6.32;;
72388;SDS011;60566;48.062;9.930;2024-03-06T05:28:10;12.85;;;7.25;;
72388;SDS011;60566;48.062;9.930;2024-03-06T05:30:35;10.00;;;5.80;;
72388;SDS011;60566;48.062;9.930;2024-03-06T05:33:00;11.90;;;6.13;;
72388;SDS011;60566;48.062;9.930;2024-03-06T05:35:26;10.98;;;5.65;;
72388;SDS011;60566;48.062;9.930;2024-03-06T05:37:51;10.07;;;5.78;;
72388;SDS011;60566;48.062;9.930;2024-03-06T05:40:17;10.10;;;5.93;;
72388;SDS011;60566;48.062;9.930;2024-03-06T05:42:42;10.40;;;6.38;;
72388;SDS011;60566;48.062;9.930;2024-03-06T05:45:09;9.35;;;5.70;;
72388;SDS011;60566;48.062;9.930;2024-03-06T05:47:34;10.07;;;6.03;;
72388;SDS011;60566;48.062;9.930;2024-03-06T05:50:00;10.88;;;6.20;;
72388;SDS011;60566;48.062;9.930;2024-03-06T05:52:25;12.77;;;6.93;;
72388;SDS011;60566;48.062;9.930;2024-03-06T05:54:52;14.55;;;7.03;;
72388;SDS011;60566;48.062;9.930;2024-03-06T05:57:18;12.82;;;6.63;;
72388;SDS011;60566;48.062;9.930;2024-03-06T05:59:43;9.13;;;5.53;;
72388;SDS011;60566;48.062;9.930;2024-03-06T06:02:10;13.60;;;6.97;;
72388;SDS011;60566;48.062;9.930;2024-03-06T06:04:35;10.07;;;6.13;;
72388;SDS011;60566;48.062;9.930;2024-03-06T06:07:00;11.57;;;6.57;;
72388;SDS011;60566;48.062;9.930;2024-03-06T06:09:26;12.02;;;6.82;;
72388;SDS011;60566;48.062;9.930;2024-03-06T06:11:51;11.52;;;5.32;;
72388;SDS011;60566;48.062;9.930;2024-03-06T06:14:16;9.75;;;5.20;;
72388;SDS011;60566;48.062;9.930;2024-03-06T06:16:42;9.25;;;5.70;;
72388;SDS011;60566;48.062;9.930;2024-03-06T06:19:09;9.88;;;5.75;;
72388;SDS011;60566;48.062;9.930;2024-03-06T06:21:34;10.80;;;6.30;;
72388;SDS011;60566;48.062;9.930;2024-03-06T06:24:00;12.00;;;5.63;;
72388;SDS011;60566;48.062;9.930;2024-03-06T06:26:25;10.20;;;6.38;;
72388;SDS011;60566;48.062;9.930;2024-03-06T06:28:50;10.45;;;6.25;;
72388;SDS011;60566;48.062;9.930;2024-03-06T06:31:16;13.30;;;6.55;;
72388;SDS011;60566;48.062;9.930;2024-03-06T06:33:41;10.68;;;6.18;;
72388;SDS011;60566;48.062;9.930;2024-03-06T06:36:08;11.55;;;6.32;;
72388;SDS011;60566;48.062;9.930;2024-03-06T06:38:33;11.13;;;6.13;;
72388;SDS011;60566;48.062;9.930;2024-03-06T06:40:59;10.20;;;5.78;;
72388;SDS011;60566;48.062;9.930;2024-03-06T06:43:26;12.13;;;5.70;;
72388;SDS011;60566;48.062;9.930;2024-03-06T06:45:51;9.55;;;5.00;;
72388;SDS011;60566;48.062;9.930;2024-03-06T06:48:16;9.45;;;5.30;;
72388;SDS011;60566;48.062;9.930;2024-03-06T06:50:42;10.55;;;5.88;;
72388;SDS011;60566;48.062;9.930;2024-03-06T06:53:08;10.45;;;6.40;;
72388;SDS011;60566;48.062;9.930;2024-03-06T06:55:34;9.25;;;5.13;;
72388;SDS011;60566;48.062;9.930;2024-03-06T06:57:59;9.00;;;4.97;;
72388;SDS011;60566;48.062;9.930;2024-03-06T07:00:25;10.68;;;5.25;;
72388;SDS011;60566;48.062;9.930;2024-03-06T07:02:50;8.55;;;5.10;;
72388;SDS011;60566;48.062;9.930;2024-03-06T07:05:56;6.50;;;4.15;;
72388;SDS011;60566;48.062;9.930;2024-03-06T07:08:13;8.48;;;4.93;;
72388;SDS011;60566;48.062;9.930;2024-03-06T07:10:38;9.40;;;5.25;;
72388;SDS011;60566;48.062;9.930;2024-03-06T07:13:04;9.10;;;4.90;;
72388;SDS011;60566;48.062;9.930;2024-03-06T07:15:29;7.88;;;4.78;;
72388;SDS011;60566;48.062;9.930;2024-03-06T07:17:54;9.57;;;4.72;;
72388;SDS011;60566;48.062;9.930;2024-03-06T07:20:20;8.50;;;4.82;;
72388;SDS011;60566;48.062;9.930;2024-03-06T07:25:49;8.40;;;4.75;;
72388;SDS011;60566;48.062;9.930;2024-03-06T07:28:17;9.45;;;5.47;;
72388;SDS011;60566;48.062;9.930;2024-03-06T07:30:52;9.40;;;5.43;;
72388;SDS011;60566;48.062;9.930;2024-03-06T07:33:18;10.18;;;4.72;;
72388;SDS011;60566;48.062;9.930;2024-03-06T07:35:43;11.00;;;5.28;;
72388;SDS011;60566;48.062;9.930;2024-03-06T07:38:09;9.68;;;5.32;;
72388;SDS011;60566;48.062;9.930;2024-03-06T07:40:34;8.60;;;4.95;;
72388;SDS011;60566;48.062;9.930;2024-03-06T07:43:01;9.65;;;6.00;;
72388;SDS011;60566;48.062;9.930;2024-03-06T07:45:26;10.05;;;5.82;;
72388;SDS011;60566;48.062;9.930;2024-03-06T07:47:52;12.48;;;6.88;;
72388;SDS011;60566;48.062;9.930;2024-03-06T07:50:17;10.52;;;5.60;;
72388;SDS011;60566;48.062;9.930;2024-03-06T07:52:42;10.60;;;6.50;;
72388;SDS011;60566;48.062;9.930;2024-03-06T07:55:08;11.05;;;5.70;;
72388;SDS011;60566;48.062;9.930;2024-03-06T07:57:33;9.40;;;5.82;;
72388;SDS011;60566;48.062;9.930;2024-03-06T08:00:00;9.18;;;6.15;;
72388;SDS011;60566;48.062;9.930;2024-03-06T08:02:26;11.30;;;6.13;;
72388;SDS011;60566;48.062;9.930;2024-03-06T08:04:51;8.70;;;5.70;;
72388;SDS011;60566;48.062;9.930;2024-03-06T08:07:19;9.15;;;5.32;;
72388;SDS011;60566;48.062;9.930;2024-03-06T08:09:47;8.25;;;5.40;;
72388;SDS011;60566;48.062;9.930;2024-03-06T08:12:14;10.85;;;6.10;;
72388;SDS011;60566;48.062;9.930;2024-03-06T08:14:40;9.20;;;5.80;;
72388;SDS011;60566;48.062;9.930;2024-03-06T08:17:06;9.52;;;6.18;;
72388;SDS011;60566;48.062;9.930;2024-03-06T08:19:32;10.05;;;4.93;;
72388;SDS011;60566;48.062;9.930;2024-03-06T08:21:57;8.27;;;5.20;;
72388;SDS011;60566;48.062;9.930;2024-03-06T08:24:23;9.35;;;5.20;;
72388;SDS011;60566;48.062;9.930;2024-03-06T08:27:06;7.88;;;4.60;;
72388;SDS011;60566;48.062;9.930;2024-03-06T08:29:37;9.15;;;5.70;;
72388;SDS011;60566;48.062;9.930;2024-03-06T08:32:02;8.25;;;4.97;;
72388;SDS011;60566;48.062;9.930;2024-03-06T08:34:29;10.40;;;5.50;;
72388;SDS011;60566;48.062;9.930;2024-03-06T08:36:55;8.30;;;5.00;;
72388;SDS011;60566;48.062;9.930;2024-03-06T08:41:58;10.20;;;5.83;;
72388;SDS011;60566;48.062;9.930;2024-03-06T08:44:23;7.18;;;4.70;;
72388;SDS011;60566;48.062;9.930;2024-03-06T08:46:49;8.88;;;4.93;;
72388;SDS011;60566;48.062;9.930;2024-03-06T08:49:14;8.52;;;5.32;;
72388;SDS011;60566;48.062;9.930;2024-03-06T08:51:41;8.60;;;5.80;;
72388;SDS011;60566;48.062;9.930;2024-03-06T08:54:06;6.90;;;4.32;;
72388;SDS011;60566;48.062;9.930;2024-03-06T08:56:32;8.15;;;4.80;;
72388;SDS011;60566;48.062;9.930;2024-03-06T08:58:57;8.95;;;4.82;;
72388;SDS011;60566;48.062;9.930;2024-03-06T09:01:22;8.32;;;5.10;;
72388;SDS011;60566;48.062;9.930;2024-03-06T09:03:48;7.63;;;4.30;;
72388;SDS011;60566;48.062;9.930;2024-03-06T09:06:13;8.70;;;4.97;;
72388;SDS011;60566;48.062;9.930;2024-03-06T09:08:40;8.60;;;5.13;;
72388;SDS011;60566;48.062;9.930;2024-03-06T09:11:06;7.70;;;4.38;;
72388;SDS011;60566;48.062;9.930;2024-03-06T09:13:31;8.57;;;5.30;;
72388;SDS011;60566;48.062;9.930;2024-03-06T09:15:56;8.10;;;5.10;;
72388;SDS011;60566;48.062;9.930;2024-03-06T09:18:22;8.15;;;4.95;;
72388;SDS011;60566;48.062;9.930;2024-03-06T09:20:47;6.82;;;4.03;;
72388;SDS011;60566;48.062;9.930;2024-03-06T09:23:13;8.50;;;4.70;;
72388;SDS011;60566;48.062;9.930;2024-03-06T09:25:39;6.80;;;4.22;;
72388;SDS011;60566;48.062;9.930;2024-03-06T09:28:05;8.52;;;4.70;;
72388;SDS011;60566;48.062;9.930;2024-03-06T09:30:31;9.77;;;5.47;;
72388;SDS011;60566;48.062;9.930;2024-03-06T09:32:56;10.10;;;6.00;;
72388;SDS011;60566;48.062;9.930;2024-03-06T09:35:21;9.60;;;5.95;;
72388;SDS011;60566;48.062;9.930;2024-03-06T09:37:47;8.90;;;5.50;;
72388;SDS011;60566;48.062;9.930;2024-03-06T09:40:19;10.00;;;5.72;;
72388;SDS011;60566;48.062;9.930;2024-03-06T09:42:46;7.38;;;4.72;;
72388;SDS011;60566;48.062;9.930;2024-03-06T09:45:12;6.65;;;4.43;;
72388;SDS011;60566;48.062;9.930;2024-03-06T09:47:37;8.18;;;4.85;;
72388;SDS011;60566;48.062;9.930;2024-03-06T09:50:04;8.30;;;4.22;;
72388;SDS011;60566;48.062;9.930;2024-03-06T09:52:33;7.47;;;5.10;;
72388;SDS011;60566;48.062;9.930;2024-03-06T09:55:14;7.40;;;4.88;;
72388;SDS011;60566;48.062;9.930;2024-03-06T09:57:47;8.18;;;4.90;;
72388;SDS011;60566;48.062;9.930;2024-03-06T10:00:12;8.30;;;4.88;;
72388;SDS011;60566;48.062;9.930;2024-03-06T10:02:38;9.73;;;5.35;;
72388;SDS011;60566;48.062;9.930;2024-03-06T10:05:06;6.47;;;4.30;;
72388;SDS011;60566;48.062;9.930;2024-03-06T10:07:45;7.50;;;4.32;;
72388;SDS011;60566;48.062;9.930;2024-03-06T10:10:11;8.27;;;4.78;;
72388;SDS011;60566;48.062;9.930;2024-03-06T10:12:36;8.45;;;5.25;;
72388;SDS011;60566;48.062;9.930;2024-03-06T10:15:03;7.68;;;4.22;;
72388;SDS011;60566;48.062;9.930;2024-03-06T10:17:29;8.68;;;4.38;;
72388;SDS011;60566;48.062;9.930;2024-03-06T10:19:54;6.63;;;3.97;;
72388;SDS011;60566;48.062;9.930;2024-03-06T10:22:20;6.47;;;4.40;;
72388;SDS011;60566;48.062;9.930;2024-03-06T10:24:46;7.93;;;5.38;;
72388;SDS011;60566;48.062;9.930;2024-03-06T10:27:14;11.60;;;6.00;;
72388;SDS011;60566;48.062;9.930;2024-03-06T10:29:41;8.18;;;4.68;;
72388;SDS011;60566;48.062;9.930;2024-03-06T10:32:08;8.73;;;5.13;;
72388;SDS011;60566;48.062;9.930;2024-03-06T10:34:34;6.60;;;3.70;;
72388;SDS011;60566;48.062;9.930;2024-03-06T10:37:01;9.45;;;3.58;;
72388;SDS011;60566;48.062;9.930;2024-03-06T10:39:27;7.22;;;4.25;;
72388;SDS011;60566;48.062;9.930;2024-03-06T10:41:55;7.15;;;4.13;;
72388;SDS011;60566;48.062;9.930;2024-03-06T10:44:21;6.15;;;3.80;;
72388;SDS011;60566;48.062;9.930;2024-03-06T10:46:47;5.72;;;3.72;;
72388;SDS011;60566;48.062;9.930;2024-03-06T10:51:46;6.85;;;3.90;;
72388;SDS011;60566;48.062;9.930;2024-03-06T10:54:11;7.60;;;4.50;;
72388;SDS011;60566;48.062;9.930;2024-03-06T10:56:39;7.15;;;4.05;;
72388;SDS011;60566;48.062;9.930;2024-03-06T10:59:05;7.55;;;4.03;;
72388;SDS011;60566;48.062;9.930;2024-03-06T11:01:34;7.47;;;4.13;;
72388;SDS011;60566;48.062;9.930;2024-03-06T11:04:00;7.95;;;4.10;;
72388;SDS011;60566;48.062;9.930;2024-03-06T11:06:27;6.90;;;3.92;;
72388;SDS011;60566;48.062;9.930;2024-03-06T11:08:52;7.82;;;4.32;;
72388;SDS011;60566;48.062;9.930;2024-03-06T11:11:21;7.97;;;4.03;;
72388;SDS011;60566;48.062;9.930;2024-03-06T11:13:47;11.70;;;5.65;;
72388;SDS011;60566;48.062;9.930;2024-03-06T11:16:15;8.02;;;4.88;;
72388;SDS011;60566;48.062;9.930;2024-03-06T11:18:40;8.40;;;4.55;;
72388;SDS011;60566;48.062;9.930;2024-03-06T11:26:43;8.02;;;4.57;;
72388;SDS011;60566;48.062;9.930;2024-03-06T11:29:15;6.75;;;3.95;;
72388;SDS011;60566;48.062;9.930;2024-03-06T11:31:55;6.00;;;3.55;;
72388;SDS011;60566;48.062;9.930;2024-03-06T11:34:36;5.80;;;3.30;;
72388;SDS011;60566;48.062;9.930;2024-03-06T11:37:06;11.60;;;4.88;;
72388;SDS011;60566;48.062;9.930;2024-03-06T11:39:33;7.07;;;3.75;;
72388;SDS011;60566;48.062;9.930;2024-03-06T11:41:59;8.25;;;4.32;;
72388;SDS011;60566;48.062;9.930;2024-03-06T11:44:26;9.15;;;5.30;;
72388;SDS011;60566;48.062;9.930;2024-03-06T11:46:56;7.30;;;4.18;;
72388;SDS011;60566;48.062;9.930;2024-03-06T11:49:23;6.30;;;2.85;;
72388;SDS011;60566;48.062;9.930;2024-03-06T11:51:49;5.55;;;3.17;;
72388;SDS011;60566;48.062;9.930;2024-03-06T11:54:18;7.20;;;3.05;;
72388;SDS011;60566;48.062;9.930;2024-03-06T11:59:09;6.18;;;3.42;;
72388;SDS011;60566;48.062;9.930;2024-03-06T12:01:35;5.68;;;3.28;;
72388;SDS011;60566;48.062;9.930;2024-03-06T12:04:00;4.60;;;3.05;;
72388;SDS011;60566;48.062;9.930;2024-03-06T12:06:26;6.50;;;3.42;;
72388;SDS011;60566;48.062;9.930;2024-03-06T12:08:52;5.40;;;3.00;;
72388;SDS011;60566;48.062;9.930;2024-03-06T12:11:19;6.45;;;3.95;;
72388;SDS011;60566;48.062;9.930;2024-03-06T12:13:45;5.22;;;2.90;;
72388;SDS011;60566;48.062;9.930;2024-03-06T12:16:10;5.82;;;3.17;;
72388;SDS011;60566;48.062;9.930;2024-03-06T12:18:36;5.70;;;2.53;;
72388;SDS011;60566;48.062;9.930;2024-03-06T12:21:01;6.72;;;3.58;;
72388;SDS011;60566;48.062;9.930;2024-03-06T12:23:27;5.85;;;3.45;;
72388;SDS011;60566;48.062;9.930;2024-03-06T12:26:01;5.35;;;2.92;;
72388;SDS011;60566;48.062;9.930;2024-03-06T12:28:29;4.72;;;2.97;;
72388;SDS011;60566;48.062;9.930;2024-03-06T12:30:55;4.80;;;2.33;;
72388;SDS011;60566;48.062;9.930;2024-03-06T12:33:20;5.35;;;2.70;;
72388;SDS011;60566;48.062;9.930;2024-03-06T12:35:45;7.13;;;3.40;;
72388;SDS011;60566;48.062;9.930;2024-03-06T12:38:11;7.55;;;3.72;;
72388;SDS011;60566;48.062;9.930;2024-03-06T12:40:37;6.60;;;3.92;;
72388;SDS011;60566;48.062;9.930;2024-03-06T12:43:05;6.68;;;3.38;;
72388;SDS011;60566;48.062;9.930;2024-03-06T12:45:32;6.78;;;3.08;;
72388;SDS011;60566;48.062;9.930;2024-03-06T12:47:58;4.80;;;2.65;;
72388;SDS011;60566;48.062;9.930;2024-03-06T12:50:24;6.82;;;3.47;;
72388;SDS011;60566;48.062;9.930;2024-03-06T12:52:49;6.85;;;3.53;;
72388;SDS011;60566;48.062;9.930;2024-03-06T12:55:15;6.45;;;2.92;;
72388;SDS011;60566;48.062;9.930;2024-03-06T12:57:40;6.70;;;2.90;;
72388;SDS011;60566;48.062;9.930;2024-03-06T13:00:06;6.28;;;2.90;;
72388;SDS011;60566;48.062;9.930;2024-03-06T13:02:34;6.30;;;2.95;;
72388;SDS011;60566;48.062;9.930;2024-03-06T13:04:59;6.47;;;2.85;;
72388;SDS011;60566;48.062;9.930;2024-03-06T13:07:24;6.50;;;3.40;;
72388;SDS011;60566;48.062;9.930;2024-03-06T13:09:50;5.32;;;3.00;;
72388;SDS011;60566;48.062;9.930;2024-03-06T13:12:15;7.40;;;3.40;;
72388;SDS011;60566;48.062;9.930;2024-03-06T13:14:53;5.68;;;2.88;;
72388;SDS011;60566;48.062;9.930;2024-03-06T13:17:38;6.45;;;3.05;;
72388;SDS011;60566;48.062;9.930;2024-03-06T13:20:03;6.10;;;3.05;;
72388;SDS011;60566;48.062;9.930;2024-03-06T13:22:30;5.38;;;2.88;;
72388;SDS011;60566;48.062;9.930;2024-03-06T13:24:56;6.18;;;2.97;;
72388;SDS011;60566;48.062;9.930;2024-03-06T13:27:21;6.72;;;3.53;;
72388;SDS011;60566;48.062;9.930;2024-03-06T13:29:47;5.38;;;3.22;;
72388;SDS011;60566;48.062;9.930;2024-03-06T13:32:12;4.70;;;2.67;;
72388;SDS011;60566;48.062;9.930;2024-03-06T13:34:42;7.05;;;3.83;;
72388;SDS011;60566;48.062;9.930;2024-03-06T13:37:07;7.45;;;3.53;;
72388;SDS011;60566;48.062;9.930;2024-03-06T13:39:32;7.60;;;3.22;;
72388;SDS011;60566;48.062;9.930;2024-03-06T13:41:58;7.35;;;4.22;;
72388;SDS011;60566;48.062;9.930;2024-03-06T13:44:23;7.90;;;4.15;;
72388;SDS011;60566;48.062;9.930;2024-03-06T13:46:49;6.53;;;3.63;;
72388;SDS011;60566;48.062;9.930;2024-03-06T13:49:33;6.50;;;3.40;;
72388;SDS011;60566;48.062;9.930;2024-03-06T13:52:01;5.85;;;2.85;;
72388;SDS011;60566;48.062;9.930;2024-03-06T13:54:26;5.78;;;3.20;;
72388;SDS011;60566;48.062;9.930;2024-03-06T13:56:51;6.80;;;3.03;;
72388;SDS011;60566;48.062;9.930;2024-03-06T13:59:17;6.35;;;3.20;;
72388;SDS011;60566;48.062;9.930;2024-03-06T14:01:42;6.78;;;3.65;;
72388;SDS011;60566;48.062;9.930;2024-03-06T14:04:08;6.07;;;3.30;;
72388;SDS011;60566;48.062;9.930;2024-03-06T14:06:33;6.45;;;3.65;;
72388;SDS011;60566;48.062;9.930;2024-03-06T14:09:00;5.93;;;3.13;;
72388;SDS011;60566;48.062;9.930;2024-03-06T14:11:25;6.28;;;3.28;;
72388;SDS011;60566;48.062;9.930;2024-03-06T14:13:51;8.02;;;3.65;;
72388;SDS011;60566;48.062;9.930;2024-03-06T14:16:16;6.93;;;3.90;;
72388;SDS011;60566;48.062;9.930;2024-03-06T14:18:41;7.10;;;3.50;;
72388;SDS011;60566;48.062;9.930;2024-03-06T14:21:07;7.93;;;3.70;;
72388;SDS011;60566;48.062;9.930;2024-03-06T14:23:32;6.03;;;3.30;;
72388;SDS011;60566;48.062;9.930;2024-03-06T14:25:59;5.95;;;3.40;;
72388;SDS011;60566;48.062;9.930;2024-03-06T14:28:24;5.53;;;2.92;;
72388;SDS011;60566;48.062;9.930;2024-03-06T14:30:52;6.32;;;3.75;;
72388;SDS011;60566;48.062;9.930;2024-03-06T14:33:18;6.00;;;3.22;;
72388;SDS011;60566;48.062;9.930;2024-03-06T14:35:43;5.97;;;3.38;;
72388;SDS011;60566;48.062;9.930;2024-03-06T14:38:08;7.25;;;3.67;;
72388;SDS011;60566;48.062;9.930;2024-03-06T14:40:34;5.55;;;3.42;;
72388;SDS011;60566;48.062;9.930;2024-03-06T14:43:01;6.88;;;3.10;;
72388;SDS011;60566;48.062;9.930;2024-03-06T14:45:26;6.13;;;3.47;;
72388;SDS011;60566;48.062;9.930;2024-03-06T14:47:52;6.53;;;3.08;;
72388;SDS011;60566;48.062;9.930;2024-03-06T14:50:17;6.03;;;3.25;;
72388;SDS011;60566;48.062;9.930;2024-03-06T14:52:42;7.40;;;3.80;;